PAS168 WIBB-WIII
Flight info
| Callsign | PAS168 |
|---|---|
| Flight time | N/A |
| Altitude | 36000 |
| Route | ISROR T5 BUNIK |
| Aircraft | A320/M-SDE3FGHIRWY/LB1 |
Departure
| Time | 2026-05-04 06:37 |
|---|---|
| Airport | Sultan Syarif Kasim II International Airport / Roesmin Nurjadin AFB (WIBB) |
Arrival
| Time | N/A |
|---|---|
| Airport | Soekarno-Hatta International Airport (WIII) |
| Time | Latitude | Longitude | Altitude | Speed | Heading |
|---|---|---|---|---|---|
| 2026-05-04 06:03 | 0.46474 | 101.44690 | 146 ft | 0 kts | 90° |
| 2026-05-04 06:28 | 0.46474 | 101.44671 | 142 ft | 4 kts | 90° |
| 2026-05-04 06:28 | 0.46475 | 101.44648 | 142 ft | 3 kts | 91° |
| 2026-05-04 06:28 | 0.46476 | 101.44624 | 141 ft | 5 kts | 98° |
| 2026-05-04 06:29 | 0.46483 | 101.44599 | 140 ft | 6 kts | 131° |
| 2026-05-04 06:29 | 0.46497 | 101.44590 | 140 ft | 0 kts | 179° |
| 2026-05-04 06:30 | 0.46496 | 101.44590 | 140 ft | 0 kts | 179° |
| 2026-05-04 06:31 | 0.46486 | 101.44590 | 140 ft | 3 kts | 179° |
| 2026-05-04 06:32 | 0.46461 | 101.44590 | 140 ft | 5 kts | 182° |
| 2026-05-04 06:33 | 0.45861 | 101.44446 | 128 ft | 25 kts | 182° |
| 2026-05-04 06:34 | 0.45687 | 101.44441 | 126 ft | 25 kts | 182° |
| 2026-05-04 06:34 | 0.45514 | 101.44436 | 123 ft | 25 kts | 182° |
| 2026-05-04 06:34 | 0.45339 | 101.44430 | 122 ft | 25 kts | 181° |
| 2026-05-04 06:34 | 0.45200 | 101.44444 | 124 ft | 17 kts | 168° |
| 2026-05-04 06:35 | 0.45129 | 101.44437 | 123 ft | 7 kts | 246° |
| 2026-05-04 06:36 | 0.46875 | 101.44473 | 159 ft | 163 kts | 2° |
| 2026-05-04 06:37 | 0.48026 | 101.44509 | 643 ft | 170 kts | 2° |
| 2026-05-04 06:37 | 0.49255 | 101.44552 | 995 ft | 183 kts | 2° |
| 2026-05-04 06:37 | 0.50574 | 101.44599 | 1270 ft | 197 kts | 2° |
| 2026-05-04 06:37 | 0.52023 | 101.44650 | 1475 ft | 220 kts | 2° |
| 2026-05-04 06:38 | 0.53569 | 101.44961 | 1844 ft | 236 kts | 31° |
| 2026-05-04 06:38 | 0.54674 | 101.46182 | 2340 ft | 247 kts | 69° |
| 2026-05-04 06:40 | 0.55462 | 101.59554 | 7192 ft | 290 kts | 84° |
| 2026-05-04 06:40 | 0.55602 | 101.61566 | 7902 ft | 293 kts | 93° |
| 2026-05-04 06:40 | 0.55097 | 101.63496 | 8641 ft | 293 kts | 120° |
| 2026-05-04 06:40 | 0.53758 | 101.65034 | 9419 ft | 292 kts | 147° |
| 2026-05-04 06:41 | 0.51889 | 101.65817 | 10072 ft | 296 kts | 167° |
| 2026-05-04 06:41 | 0.49852 | 101.66269 | 10389 ft | 313 kts | 168° |
| 2026-05-04 06:41 | 0.47632 | 101.66729 | 10664 ft | 331 kts | 168° |
| 2026-05-04 06:41 | 0.45312 | 101.67203 | 10923 ft | 349 kts | 168° |
| 2026-05-04 06:42 | 0.42878 | 101.67703 | 11152 ft | 366 kts | 168° |
| 2026-05-04 06:42 | 0.40333 | 101.68234 | 11392 ft | 383 kts | 167° |
| 2026-05-04 06:42 | 0.37690 | 101.68796 | 11900 ft | 389 kts | 167° |
| 2026-05-04 06:44 | 0.19688 | 101.75731 | 15887 ft | 410 kts | 153° |
| 2026-05-04 06:44 | 0.17090 | 101.77017 | 16402 ft | 414 kts | 153° |
| 2026-05-04 06:44 | 0.14539 | 101.78286 | 16865 ft | 416 kts | 151° |
| 2026-05-04 06:45 | 0.12093 | 101.79846 | 17352 ft | 418 kts | 141° |
| 2026-05-04 06:45 | 0.09950 | 101.81811 | 17819 ft | 419 kts | 131° |
| 2026-05-04 06:45 | 0.08037 | 101.84011 | 18250 ft | 422 kts | 130° |
| 2026-05-04 06:45 | 0.06105 | 101.86245 | 18629 ft | 425 kts | 130° |
| 2026-05-04 06:46 | 0.04170 | 101.88481 | 19013 ft | 428 kts | 130° |
| 2026-05-04 06:46 | 0.02216 | 101.90738 | 19402 ft | 430 kts | 130° |
| 2026-05-04 06:46 | 0.00257 | 101.93000 | 19788 ft | 432 kts | 130° |
| 2026-05-04 06:46 | -0.01717 | 101.95273 | 20167 ft | 435 kts | 130° |
| 2026-05-04 06:48 | -0.15849 | 102.11581 | 22731 ft | 452 kts | 130° |
| 2026-05-04 06:48 | -0.17911 | 102.13964 | 23091 ft | 454 kts | 130° |
| 2026-05-04 06:49 | -0.19986 | 102.16363 | 23434 ft | 457 kts | 130° |
| 2026-05-04 06:50 | -0.33645 | 102.32868 | 25312 ft | 468 kts | 118° |
| 2026-05-04 06:51 | -0.35412 | 102.36165 | 25597 ft | 470 kts | 117° |
| 2026-05-04 06:51 | -0.36931 | 102.39006 | 25844 ft | 472 kts | 117° |
| 2026-05-04 06:51 | -0.38484 | 102.41911 | 26092 ft | 474 kts | 117° |
| 2026-05-04 06:51 | -0.40062 | 102.44864 | 26365 ft | 476 kts | 117° |
| 2026-05-04 06:52 | -0.41621 | 102.47776 | 26636 ft | 477 kts | 117° |
| 2026-05-04 06:52 | -0.43169 | 102.50663 | 26985 ft | 476 kts | 117° |
| 2026-05-04 06:52 | -0.44747 | 102.53608 | 27380 ft | 475 kts | 117° |
| 2026-05-04 06:52 | -0.46306 | 102.56513 | 27749 ft | 473 kts | 117° |
| 2026-05-04 06:53 | -0.47866 | 102.59409 | 28118 ft | 472 kts | 117° |
| 2026-05-04 06:53 | -0.49424 | 102.62295 | 28480 ft | 472 kts | 118° |
| 2026-05-04 06:53 | -0.50978 | 102.65173 | 28816 ft | 471 kts | 117° |
| 2026-05-04 06:53 | -0.52528 | 102.68051 | 29163 ft | 470 kts | 117° |
| 2026-05-04 06:54 | -0.54075 | 102.70926 | 29504 ft | 469 kts | 117° |
| 2026-05-04 06:54 | -0.55601 | 102.73765 | 29827 ft | 469 kts | 117° |
| 2026-05-04 06:54 | -0.57144 | 102.76633 | 30120 ft | 468 kts | 117° |
| 2026-05-04 06:54 | -0.58681 | 102.79486 | 30374 ft | 467 kts | 117° |
| 2026-05-04 06:55 | -0.60221 | 102.82341 | 30628 ft | 466 kts | 117° |
| 2026-05-04 06:55 | -0.61764 | 102.85203 | 30874 ft | 466 kts | 117° |
| 2026-05-04 06:55 | -0.63292 | 102.88050 | 31105 ft | 465 kts | 117° |
| 2026-05-04 06:55 | -0.64821 | 102.90896 | 31335 ft | 465 kts | 117° |
| 2026-05-04 06:56 | -0.66356 | 102.93744 | 31560 ft | 465 kts | 117° |
| 2026-05-04 06:57 | -0.77030 | 103.13592 | 32967 ft | 462 kts | 117° |
| 2026-05-04 06:58 | -0.78559 | 103.16425 | 33150 ft | 462 kts | 117° |
| 2026-05-04 06:58 | -0.80081 | 103.19244 | 33330 ft | 462 kts | 117° |
| 2026-05-04 06:58 | -0.81602 | 103.22066 | 33498 ft | 461 kts | 117° |
| 2026-05-04 06:58 | -0.83122 | 103.24891 | 33671 ft | 461 kts | 117° |
| 2026-05-04 06:59 | -0.84638 | 103.27710 | 33836 ft | 460 kts | 117° |
| 2026-05-04 06:59 | -0.86333 | 103.30423 | 34010 ft | 459 kts | 124° |
| 2026-05-04 06:59 | -0.88144 | 103.33038 | 34141 ft | 459 kts | 124° |
| 2026-05-04 06:59 | -0.89976 | 103.35655 | 34255 ft | 459 kts | 124° |
| 2026-05-04 07:01 | -1.02808 | 103.53902 | 35045 ft | 457 kts | 124° |
| 2026-05-04 07:01 | -1.04622 | 103.56494 | 35164 ft | 456 kts | 124° |
| 2026-05-04 07:02 | -1.06448 | 103.59095 | 35276 ft | 456 kts | 124° |
| 2026-05-04 07:02 | -1.08264 | 103.61682 | 35392 ft | 455 kts | 124° |
| 2026-05-04 07:02 | -1.10075 | 103.64263 | 35510 ft | 454 kts | 124° |
| 2026-05-04 07:02 | -1.11889 | 103.66843 | 35627 ft | 453 kts | 124° |
| 2026-05-04 07:03 | -1.13701 | 103.69419 | 35777 ft | 450 kts | 124° |
| 2026-05-04 07:03 | -1.15495 | 103.71973 | 35863 ft | 450 kts | 124° |
| 2026-05-04 07:03 | -1.19113 | 103.77122 | 35858 ft | 454 kts | 124° |
| 2026-05-04 07:04 | -1.22747 | 103.82300 | 35906 ft | 456 kts | 124° |
| 2026-05-04 07:04 | -1.26397 | 103.87508 | 35918 ft | 457 kts | 124° |
| 2026-05-04 07:05 | -1.30043 | 103.92707 | 35919 ft | 456 kts | 124° |
| 2026-05-04 07:05 | -1.33679 | 103.97898 | 35916 ft | 456 kts | 124° |
| 2026-05-04 07:06 | -1.39145 | 104.05680 | 35911 ft | 456 kts | 124° |
| 2026-05-04 07:07 | -1.42764 | 104.10835 | 35908 ft | 456 kts | 124° |
| 2026-05-04 07:09 | -1.57317 | 104.31579 | 35901 ft | 455 kts | 124° |
| 2026-05-04 07:09 | -1.60944 | 104.36764 | 35901 ft | 455 kts | 124° |